sensor_id;sensor_type;location;lat;lon;timestamp;pressure;altitude;pressure_sealevel;temperature;humidity
19112;BME280;9688;51.906;8.376;2024-02-23T00:04:14;97654.88;;;9.40;90.10
19112;BME280;9688;51.906;8.376;2024-02-23T00:07:00;97666.88;;;9.32;91.14
19112;BME280;9688;51.906;8.376;2024-02-23T00:09:46;97672.50;;;9.28;90.69
19112;BME280;9688;51.906;8.376;2024-02-23T00:12:31;97695.06;;;9.21;91.24
19112;BME280;9688;51.906;8.376;2024-02-23T00:15:17;97710.16;;;9.07;92.62
19112;BME280;9688;51.906;8.376;2024-02-23T00:18:02;97727.16;;;8.92;92.23
19112;BME280;9688;51.906;8.376;2024-02-23T00:20:49;97753.75;;;8.78;93.21
19112;BME280;9688;51.906;8.376;2024-02-23T00:23:35;97759.00;;;8.66;94.43
19112;BME280;9688;51.906;8.376;2024-02-23T00:26:20;97769.28;;;8.58;94.26
19112;BME280;9688;51.906;8.376;2024-02-23T00:29:06;97756.69;;;8.51;95.26
19112;BME280;9688;51.906;8.376;2024-02-23T00:31:51;97768.75;;;8.42;95.47
19112;BME280;9688;51.906;8.376;2024-02-23T00:34:36;97769.34;;;8.34;96.49
19112;BME280;9688;51.906;8.376;2024-02-23T00:37:23;97788.44;;;8.25;97.14
19112;BME280;9688;51.906;8.376;2024-02-23T00:40:10;97823.09;;;8.19;97.18
19112;BME280;9688;51.906;8.376;2024-02-23T00:42:56;97844.69;;;8.11;97.89
19112;BME280;9688;51.906;8.376;2024-02-23T00:45:41;97839.06;;;8.04;98.97
19112;BME280;9688;51.906;8.376;2024-02-23T00:48:26;97870.34;;;7.96;99.43
19112;BME280;9688;51.906;8.376;2024-02-23T00:51:11;97876.66;;;7.94;99.75
19112;BME280;9688;51.906;8.376;2024-02-23T00:53:58;97877.94;;;7.88;100.00
19112;BME280;9688;51.906;8.376;2024-02-23T00:56:43;97904.69;;;7.82;100.00
19112;BME280;9688;51.906;8.376;2024-02-23T00:59:28;97905.22;;;7.74;100.00
19112;BME280;9688;51.906;8.376;2024-02-23T01:02:14;97925.13;;;7.66;100.00
19112;BME280;9688;51.906;8.376;2024-02-23T01:04:59;97935.22;;;7.59;100.00
19112;BME280;9688;51.906;8.376;2024-02-23T01:07:44;97944.78;;;7.47;100.00
19112;BME280;9688;51.906;8.376;2024-02-23T01:10:31;97946.34;;;7.37;100.00
19112;BME280;9688;51.906;8.376;2024-02-23T01:13:16;97968.66;;;7.31;100.00
19112;BME280;9688;51.906;8.376;2024-02-23T01:16:02;97981.16;;;7.28;100.00
19112;BME280;9688;51.906;8.376;2024-02-23T01:18:47;97987.25;;;7.28;100.00
19112;BME280;9688;51.906;8.376;2024-02-23T01:21:32;97995.34;;;7.25;100.00
19112;BME280;9688;51.906;8.376;2024-02-23T01:24:17;98011.31;;;7.22;100.00
19112;BME280;9688;51.906;8.376;2024-02-23T01:27:04;98033.38;;;7.20;100.00
19112;BME280;9688;51.906;8.376;2024-02-23T01:29:50;98022.25;;;7.16;100.00
19112;BME280;9688;51.906;8.376;2024-02-23T01:32:35;98033.38;;;7.07;100.00
19112;BME280;9688;51.906;8.376;2024-02-23T01:35:21;98039.19;;;6.98;100.00
19112;BME280;9688;51.906;8.376;2024-02-23T01:38:06;98050.75;;;6.95;100.00
19112;BME280;9688;51.906;8.376;2024-02-23T01:40:51;98046.38;;;6.96;100.00
19112;BME280;9688;51.906;8.376;2024-02-23T01:43:38;98050.88;;;6.93;100.00
19112;BME280;9688;51.906;8.376;2024-02-23T01:46:24;98064.91;;;6.92;100.00
19112;BME280;9688;51.906;8.376;2024-02-23T01:49:09;98063.16;;;6.93;100.00
19112;BME280;9688;51.906;8.376;2024-02-23T01:51:55;98079.84;;;6.92;100.00
19112;BME280;9688;51.906;8.376;2024-02-23T01:54:41;98080.59;;;6.94;100.00
19112;BME280;9688;51.906;8.376;2024-02-23T01:57:26;98082.25;;;6.95;100.00
19112;BME280;9688;51.906;8.376;2024-02-23T02:00:16;98085.94;;;6.92;100.00
19112;BME280;9688;51.906;8.376;2024-02-23T02:03:02;98073.00;;;6.89;100.00
19112;BME280;9688;51.906;8.376;2024-02-23T02:05:48;98087.56;;;6.81;100.00
19112;BME280;9688;51.906;8.376;2024-02-23T02:08:33;98112.44;;;6.75;100.00
19112;BME280;9688;51.906;8.376;2024-02-23T02:11:19;98098.94;;;6.67;100.00
19112;BME280;9688;51.906;8.376;2024-02-23T02:14:05;98110.66;;;6.61;100.00
19112;BME280;9688;51.906;8.376;2024-02-23T02:16:52;98116.19;;;6.57;100.00
19112;BME280;9688;51.906;8.376;2024-02-23T02:19:37;98111.91;;;6.56;100.00
19112;BME280;9688;51.906;8.376;2024-02-23T02:22:22;98122.50;;;6.54;100.00
19112;BME280;9688;51.906;8.376;2024-02-23T02:25:08;98118.19;;;6.53;100.00
19112;BME280;9688;51.906;8.376;2024-02-23T02:27:53;98117.53;;;6.50;100.00
19112;BME280;9688;51.906;8.376;2024-02-23T02:30:39;98133.47;;;6.46;100.00
19112;BME280;9688;51.906;8.376;2024-02-23T02:33:26;98113.41;;;6.45;100.00
19112;BME280;9688;51.906;8.376;2024-02-23T02:36:11;98137.13;;;6.44;100.00
19112;BME280;9688;51.906;8.376;2024-02-23T02:38:57;98139.84;;;6.42;100.00
19112;BME280;9688;51.906;8.376;2024-02-23T02:41:42;98149.41;;;6.43;100.00
19112;BME280;9688;51.906;8.376;2024-02-23T02:44:27;98159.06;;;6.43;100.00
19112;BME280;9688;51.906;8.376;2024-02-23T02:47:14;98158.19;;;6.42;100.00
19112;BME280;9688;51.906;8.376;2024-02-23T02:50:00;98161.69;;;6.43;100.00
19112;BME280;9688;51.906;8.376;2024-02-23T02:52:46;98166.75;;;6.46;100.00
19112;BME280;9688;51.906;8.376;2024-02-23T02:55:31;98169.91;;;6.51;100.00
19112;BME280;9688;51.906;8.376;2024-02-23T02:58:16;98174.69;;;6.59;100.00
19112;BME280;9688;51.906;8.376;2024-02-23T03:01:01;98159.63;;;6.62;100.00
19112;BME280;9688;51.906;8.376;2024-02-23T03:03:47;98174.50;;;6.62;100.00
19112;BME280;9688;51.906;8.376;2024-02-23T03:06:33;98171.16;;;6.60;100.00
19112;BME280;9688;51.906;8.376;2024-02-23T03:09:19;98178.09;;;6.61;100.00
19112;BME280;9688;51.906;8.376;2024-02-23T03:12:04;98181.16;;;6.67;100.00
19112;BME280;9688;51.906;8.376;2024-02-23T03:14:49;98178.06;;;6.75;100.00
19112;BME280;9688;51.906;8.376;2024-02-23T03:17:35;98180.31;;;6.81;100.00
19112;BME280;9688;51.906;8.376;2024-02-23T03:20:20;98181.50;;;6.90;100.00
19112;BME280;9688;51.906;8.376;2024-02-23T03:23:07;98188.19;;;6.96;100.00
19112;BME280;9688;51.906;8.376;2024-02-23T03:25:52;98187.03;;;7.00;100.00
19112;BME280;9688;51.906;8.376;2024-02-23T03:28:38;98192.94;;;7.03;100.00
19112;BME280;9688;51.906;8.376;2024-02-23T03:31:23;98196.72;;;6.99;100.00
19112;BME280;9688;51.906;8.376;2024-02-23T03:34:08;98200.25;;;6.98;100.00
19112;BME280;9688;51.906;8.376;2024-02-23T03:36:53;98200.16;;;7.00;100.00
19112;BME280;9688;51.906;8.376;2024-02-23T03:39:40;98199.31;;;6.99;100.00
19112;BME280;9688;51.906;8.376;2024-02-23T03:42:25;98196.78;;;6.98;100.00
19112;BME280;9688;51.906;8.376;2024-02-23T03:45:11;98198.38;;;7.00;100.00
19112;BME280;9688;51.906;8.376;2024-02-23T03:47:56;98184.31;;;7.01;100.00
19112;BME280;9688;51.906;8.376;2024-02-23T03:50:42;98204.66;;;6.98;100.00
19112;BME280;9688;51.906;8.376;2024-02-23T03:53:27;98200.56;;;6.93;100.00
19112;BME280;9688;51.906;8.376;2024-02-23T03:56:14;98214.81;;;6.89;99.98
19112;BME280;9688;51.906;8.376;2024-02-23T03:58:59;98225.63;;;6.85;100.00
19112;BME280;9688;51.906;8.376;2024-02-23T04:01:44;98196.06;;;6.81;99.55
19112;BME280;9688;51.906;8.376;2024-02-23T04:04:30;98227.75;;;6.78;100.00
19112;BME280;9688;51.906;8.376;2024-02-23T04:07:15;98235.81;;;6.75;99.76
19112;BME280;9688;51.906;8.376;2024-02-23T04:10:00;98243.69;;;6.75;99.66
19112;BME280;9688;51.906;8.376;2024-02-23T04:13:33;98231.34;;;6.77;99.56
19112;BME280;9688;51.906;8.376;2024-02-23T04:16:21;98240.88;;;6.78;99.20
19112;BME280;9688;51.906;8.376;2024-02-23T04:19:08;98240.03;;;6.78;99.19
19112;BME280;9688;51.906;8.376;2024-02-23T04:22:19;98233.38;;;6.72;99.33
19112;BME280;9688;51.906;8.376;2024-02-23T04:25:04;98237.16;;;6.68;99.08
19112;BME280;9688;51.906;8.376;2024-02-23T04:27:50;98239.84;;;6.66;99.17
19112;BME280;9688;51.906;8.376;2024-02-23T04:30:37;98236.47;;;6.64;98.71
19112;BME280;9688;51.906;8.376;2024-02-23T04:33:22;98242.75;;;6.62;98.77
19112;BME280;9688;51.906;8.376;2024-02-23T04:36:08;98250.75;;;6.60;99.22
19112;BME280;9688;51.906;8.376;2024-02-23T04:38:53;98265.66;;;6.60;98.80
19112;BME280;9688;51.906;8.376;2024-02-23T04:41:38;98271.94;;;6.57;99.21
19112;BME280;9688;51.906;8.376;2024-02-23T04:44:23;98272.66;;;6.59;99.05
19112;BME280;9688;51.906;8.376;2024-02-23T04:47:10;98282.13;;;6.62;99.20
19112;BME280;9688;51.906;8.376;2024-02-23T04:49:55;98281.94;;;6.65;98.82
19112;BME280;9688;51.906;8.376;2024-02-23T04:52:41;98300.06;;;6.69;98.99
19112;BME280;9688;51.906;8.376;2024-02-23T04:55:26;98289.94;;;6.78;98.57
19112;BME280;9688;51.906;8.376;2024-02-23T04:58:12;98293.97;;;6.83;98.72
19112;BME280;9688;51.906;8.376;2024-02-23T05:00:57;98293.59;;;6.89;98.59
19112;BME280;9688;51.906;8.376;2024-02-23T05:03:44;98297.72;;;6.93;97.98
19112;BME280;9688;51.906;8.376;2024-02-23T05:06:29;98310.75;;;6.95;98.40
19112;BME280;9688;51.906;8.376;2024-02-23T05:09:15;98306.44;;;6.94;98.36
19112;BME280;9688;51.906;8.376;2024-02-23T05:12:00;98304.84;;;6.91;98.57
19112;BME280;9688;51.906;8.376;2024-02-23T05:14:45;98310.94;;;6.92;98.68
19112;BME280;9688;51.906;8.376;2024-02-23T05:17:31;98319.50;;;6.96;98.47
19112;BME280;9688;51.906;8.376;2024-02-23T05:20:17;98325.47;;;6.98;98.63
19112;BME280;9688;51.906;8.376;2024-02-23T05:23:04;98317.72;;;6.96;98.77
19112;BME280;9688;51.906;8.376;2024-02-23T05:25:49;98318.75;;;6.93;98.66
19112;BME280;9688;51.906;8.376;2024-02-23T05:28:34;98322.28;;;6.92;99.17
19112;BME280;9688;51.906;8.376;2024-02-23T05:31:20;98322.47;;;6.89;98.73
19112;BME280;9688;51.906;8.376;2024-02-23T05:34:05;98327.72;;;6.89;99.25
19112;BME280;9688;51.906;8.376;2024-02-23T05:36:52;98337.22;;;6.92;99.02
19112;BME280;9688;51.906;8.376;2024-02-23T05:39:37;98324.75;;;6.96;98.71
19112;BME280;9688;51.906;8.376;2024-02-23T05:42:23;98341.16;;;6.99;98.56
19112;BME280;9688;51.906;8.376;2024-02-23T05:45:08;98338.25;;;7.04;98.34
19112;BME280;9688;51.906;8.376;2024-02-23T05:47:54;98343.22;;;7.08;98.56
19112;BME280;9688;51.906;8.376;2024-02-23T05:50:39;98359.47;;;7.15;98.18
19112;BME280;9688;51.906;8.376;2024-02-23T05:53:26;98354.22;;;7.15;98.39
19112;BME280;9688;51.906;8.376;2024-02-23T05:56:15;98355.13;;;7.14;98.04
19112;BME280;9688;51.906;8.376;2024-02-23T05:59:00;98360.38;;;7.14;98.13
19112;BME280;9688;51.906;8.376;2024-02-23T06:01:46;98365.66;;;7.14;98.01
19112;BME280;9688;51.906;8.376;2024-02-23T06:04:31;98363.13;;;7.12;97.87
19112;BME280;9688;51.906;8.376;2024-02-23T06:13:06;98376.91;;;7.16;97.57
19112;BME280;9688;51.906;8.376;2024-02-23T06:15:52;98376.81;;;7.18;97.45
19112;BME280;9688;51.906;8.376;2024-02-23T06:18:38;98374.94;;;7.20;97.26
19112;BME280;9688;51.906;8.376;2024-02-23T06:21:25;98374.03;;;7.21;97.07
19112;BME280;9688;51.906;8.376;2024-02-23T06:24:10;98378.41;;;7.20;97.06
19112;BME280;9688;51.906;8.376;2024-02-23T06:26:55;98385.44;;;7.20;96.80
19112;BME280;9688;51.906;8.376;2024-02-23T06:29:43;98381.91;;;7.21;96.62
19112;BME280;9688;51.906;8.376;2024-02-23T06:32:28;98388.66;;;7.25;96.32
19112;BME280;9688;51.906;8.376;2024-02-23T06:35:14;98386.22;;;7.22;96.65
19112;BME280;9688;51.906;8.376;2024-02-23T06:37:59;98393.34;;;7.20;96.30
19112;BME280;9688;51.906;8.376;2024-02-23T06:40:44;98393.44;;;7.18;96.64
19112;BME280;9688;51.906;8.376;2024-02-23T06:43:29;98390.81;;;7.18;96.20
19112;BME280;9688;51.906;8.376;2024-02-23T06:46:18;98393.53;;;7.17;96.27
19112;BME280;9688;51.906;8.376;2024-02-23T06:49:04;98396.16;;;7.17;96.29
19112;BME280;9688;51.906;8.376;2024-02-23T06:51:50;98399.03;;;7.12;96.42
19112;BME280;9688;51.906;8.376;2024-02-23T06:54:35;98405.31;;;7.09;96.70
19112;BME280;9688;51.906;8.376;2024-02-23T06:57:20;98396.78;;;7.06;96.34
19112;BME280;9688;51.906;8.376;2024-02-23T07:00:08;98410.09;;;7.03;96.71
19112;BME280;9688;51.906;8.376;2024-02-23T07:02:55;98419.97;;;6.99;96.34
19112;BME280;9688;51.906;8.376;2024-02-23T07:05:42;98411.75;;;6.89;96.59
19112;BME280;9688;51.906;8.376;2024-02-23T07:08:29;98426.28;;;6.81;97.02
19112;BME280;9688;51.906;8.376;2024-02-23T07:11:14;98419.53;;;6.77;97.13
19112;BME280;9688;51.906;8.376;2024-02-23T07:14:00;98429.03;;;6.79;97.24
19112;BME280;9688;51.906;8.376;2024-02-23T07:16:45;98428.91;;;6.81;96.78
19112;BME280;9688;51.906;8.376;2024-02-23T07:19:32;98420.13;;;6.82;97.32
19112;BME280;9688;51.906;8.376;2024-02-23T07:22:18;98425.25;;;6.83;97.19
19112;BME280;9688;51.906;8.376;2024-02-23T07:25:04;98420.97;;;6.82;97.08
19112;BME280;9688;51.906;8.376;2024-02-23T07:27:50;98418.34;;;6.82;96.71
19112;BME280;9688;51.906;8.376;2024-02-23T07:30:35;98416.38;;;6.86;96.92
19112;BME280;9688;51.906;8.376;2024-02-23T07:33:21;98416.09;;;6.90;97.05
19112;BME280;9688;51.906;8.376;2024-02-23T07:36:13;98400.34;;;6.90;96.51
19112;BME280;9688;51.906;8.376;2024-02-23T07:38:59;98415.22;;;6.90;96.88
19112;BME280;9688;51.906;8.376;2024-02-23T07:41:45;98408.31;;;6.89;96.51
19112;BME280;9688;51.906;8.376;2024-02-23T07:44:30;98408.31;;;6.89;96.60
19112;BME280;9688;51.906;8.376;2024-02-23T07:47:16;98409.16;;;6.89;96.25
19112;BME280;9688;51.906;8.376;2024-02-23T07:50:01;98406.44;;;6.91;96.32
19112;BME280;9688;51.906;8.376;2024-02-23T07:52:48;98413.28;;;6.93;95.78
19112;BME280;9688;51.906;8.376;2024-02-23T07:55:33;98410.47;;;6.97;96.15
19112;BME280;9688;51.906;8.376;2024-02-23T07:58:18;98411.25;;;6.99;96.02
19112;BME280;9688;51.906;8.376;2024-02-23T08:01:05;98413.56;;;7.03;95.70
19112;BME280;9688;51.906;8.376;2024-02-23T08:03:50;98408.13;;;7.06;95.51
19112;BME280;9688;51.906;8.376;2024-02-23T08:06:35;98405.16;;;7.12;95.29
19112;BME280;9688;51.906;8.376;2024-02-23T08:09:22;98406.78;;;7.15;95.76
19112;BME280;9688;51.906;8.376;2024-02-23T08:12:08;98404.69;;;7.20;95.10
19112;BME280;9688;51.906;8.376;2024-02-23T08:14:53;98417.63;;;7.23;95.10
19112;BME280;9688;51.906;8.376;2024-02-23T08:17:39;98427.03;;;7.27;94.63
19112;BME280;9688;51.906;8.376;2024-02-23T08:20:24;98426.66;;;7.33;94.55
19112;BME280;9688;51.906;8.376;2024-02-23T08:23:09;98438.50;;;7.41;94.58
19112;BME280;9688;51.906;8.376;2024-02-23T08:25:56;98432.94;;;7.45;94.27
19112;BME280;9688;51.906;8.376;2024-02-23T08:28:42;98447.50;;;7.51;94.12
19112;BME280;9688;51.906;8.376;2024-02-23T08:31:28;98455.03;;;7.57;93.64
19112;BME280;9688;51.906;8.376;2024-02-23T08:34:13;98466.28;;;7.59;93.58
19112;BME280;9688;51.906;8.376;2024-02-23T08:36:58;98470.44;;;7.63;93.71
19112;BME280;9688;51.906;8.376;2024-02-23T08:39:43;98465.94;;;7.65;93.61
19112;BME280;9688;51.906;8.376;2024-02-23T08:42:30;98465.81;;;7.67;93.83
19112;BME280;9688;51.906;8.376;2024-02-23T08:45:16;98466.13;;;7.76;93.45
19112;BME280;9688;51.906;8.376;2024-02-23T08:48:01;98471.44;;;7.89;92.70
19112;BME280;9688;51.906;8.376;2024-02-23T08:50:47;98466.53;;;7.97;92.64
19112;BME280;9688;51.906;8.376;2024-02-23T08:53:33;98477.03;;;8.12;92.09
19112;BME280;9688;51.906;8.376;2024-02-23T08:56:18;98484.53;;;8.32;92.10
19112;BME280;9688;51.906;8.376;2024-02-23T08:59:05;98472.97;;;8.49;91.18
19112;BME280;9688;51.906;8.376;2024-02-23T09:01:50;98483.56;;;8.62;91.19
19112;BME280;9688;51.906;8.376;2024-02-23T09:04:35;98495.28;;;8.70;90.73
19112;BME280;9688;51.906;8.376;2024-02-23T09:07:21;98485.47;;;8.73;90.44
19112;BME280;9688;51.906;8.376;2024-02-23T09:10:07;98482.81;;;8.73;90.89
19112;BME280;9688;51.906;8.376;2024-02-23T09:12:52;98490.72;;;8.73;90.27
19112;BME280;9688;51.906;8.376;2024-02-23T09:15:39;98498.94;;;8.68;90.25
19112;BME280;9688;51.906;8.376;2024-02-23T09:18:25;98506.09;;;8.66;89.57
19112;BME280;9688;51.906;8.376;2024-02-23T09:21:11;98497.38;;;8.65;89.57
19112;BME280;9688;51.906;8.376;2024-02-23T09:23:56;98493.34;;;8.60;89.77
19112;BME280;9688;51.906;8.376;2024-02-23T09:26:46;98495.22;;;8.58;89.48
19112;BME280;9688;51.906;8.376;2024-02-23T09:29:31;98497.75;;;8.59;89.48
19112;BME280;9688;51.906;8.376;2024-02-23T09:32:18;98497.25;;;8.67;89.01
19112;BME280;9688;51.906;8.376;2024-02-23T09:39:06;98485.19;;;8.77;88.56
19112;BME280;9688;51.906;8.376;2024-02-23T09:41:54;98498.13;;;8.67;88.20
19112;BME280;9688;51.906;8.376;2024-02-23T09:44:41;98491.34;;;8.63;88.64
19112;BME280;9688;51.906;8.376;2024-02-23T09:47:31;98513.16;;;8.65;88.85
19112;BME280;9688;51.906;8.376;2024-02-23T09:50:17;98491.88;;;8.68;87.96
19112;BME280;9688;51.906;8.376;2024-02-23T09:53:05;98504.94;;;8.70;87.70
19112;BME280;9688;51.906;8.376;2024-02-23T09:55:53;98509.84;;;8.76;87.81
19112;BME280;9688;51.906;8.376;2024-02-23T09:58:39;98509.50;;;8.81;87.37
19112;BME280;9688;51.906;8.376;2024-02-23T10:01:28;98500.56;;;8.83;87.01
19112;BME280;9688;51.906;8.376;2024-02-23T10:04:19;98504.16;;;8.82;87.38
19112;BME280;9688;51.906;8.376;2024-02-23T10:07:05;98497.72;;;8.86;86.99
19112;BME280;9688;51.906;8.376;2024-02-23T10:09:53;98508.81;;;8.91;86.30
19112;BME280;9688;51.906;8.376;2024-02-23T10:12:39;98506.44;;;9.01;85.48
19112;BME280;9688;51.906;8.376;2024-02-23T10:15:25;98516.03;;;9.02;85.89
19112;BME280;9688;51.906;8.376;2024-02-23T10:18:11;98507.16;;;9.03;85.12
19112;BME280;9688;51.906;8.376;2024-02-23T10:20:58;98504.34;;;9.06;85.41
19112;BME280;9688;51.906;8.376;2024-02-23T10:23:44;98507.69;;;9.08;84.58
19112;BME280;9688;51.906;8.376;2024-02-23T10:26:30;98514.88;;;9.06;85.09
19112;BME280;9688;51.906;8.376;2024-02-23T10:29:16;98509.28;;;9.11;85.01
19112;BME280;9688;51.906;8.376;2024-02-23T10:32:03;98506.34;;;9.15;84.25
19112;BME280;9688;51.906;8.376;2024-02-23T10:34:52;98505.09;;;9.21;83.80
19112;BME280;9688;51.906;8.376;2024-02-23T10:37:42;98507.63;;;9.23;84.22
19112;BME280;9688;51.906;8.376;2024-02-23T10:40:30;98511.13;;;9.23;84.03
19112;BME280;9688;51.906;8.376;2024-02-23T10:43:19;98510.91;;;9.26;83.81
19112;BME280;9688;51.906;8.376;2024-02-23T10:46:05;98514.19;;;9.30;84.22
19112;BME280;9688;51.906;8.376;2024-02-23T10:48:54;98502.28;;;9.37;84.21
19112;BME280;9688;51.906;8.376;2024-02-23T10:51:41;98503.25;;;9.49;83.27
19112;BME280;9688;51.906;8.376;2024-02-23T10:54:30;98499.97;;;9.58;82.69
19112;BME280;9688;51.906;8.376;2024-02-23T10:57:17;98501.78;;;9.70;82.22
19112;BME280;9688;51.906;8.376;2024-02-23T11:00:03;98503.97;;;9.89;82.18
19112;BME280;9688;51.906;8.376;2024-02-23T11:02:55;98497.84;;;10.01;81.17
19112;BME280;9688;51.906;8.376;2024-02-23T11:05:47;98494.97;;;10.04;81.28
19112;BME280;9688;51.906;8.376;2024-02-23T11:08:35;98492.44;;;10.03;81.84
19112;BME280;9688;51.906;8.376;2024-02-23T11:11:23;98503.44;;;9.97;81.79
19112;BME280;9688;51.906;8.376;2024-02-23T11:14:09;98493.19;;;10.05;81.30
19112;BME280;9688;51.906;8.376;2024-02-23T11:16:54;98491.25;;;10.20;81.40
19112;BME280;9688;51.906;8.376;2024-02-23T11:19:40;98480.81;;;10.31;80.99
19112;BME280;9688;51.906;8.376;2024-02-23T11:22:25;98475.19;;;10.36;79.84
19112;BME280;9688;51.906;8.376;2024-02-23T11:25:11;98470.84;;;10.35;80.37
19112;BME280;9688;51.906;8.376;2024-02-23T11:28:00;98488.72;;;10.31;80.55
19112;BME280;9688;51.906;8.376;2024-02-23T11:30:45;98483.75;;;10.26;80.67
19112;BME280;9688;51.906;8.376;2024-02-23T11:33:34;98490.72;;;10.27;80.51
19112;BME280;9688;51.906;8.376;2024-02-23T11:36:23;98500.03;;;10.20;80.16
19112;BME280;9688;51.906;8.376;2024-02-23T11:39:10;98475.84;;;10.14;80.73
19112;BME280;9688;51.906;8.376;2024-02-23T11:41:57;98486.63;;;10.11;80.53
19112;BME280;9688;51.906;8.376;2024-02-23T11:44:46;98497.63;;;10.04;80.12
19112;BME280;9688;51.906;8.376;2024-02-23T11:47:31;98499.19;;;10.07;80.92
19112;BME280;9688;51.906;8.376;2024-02-23T11:50:17;98496.53;;;10.20;79.86
19112;BME280;9688;51.906;8.376;2024-02-23T11:53:05;98503.09;;;10.27;80.61
19112;BME280;9688;51.906;8.376;2024-02-23T11:55:50;98493.91;;;10.20;81.12
19112;BME280;9688;51.906;8.376;2024-02-23T11:58:37;98497.59;;;10.17;80.35
19112;BME280;9688;51.906;8.376;2024-02-23T12:01:24;98504.78;;;10.15;80.17
19112;BME280;9688;51.906;8.376;2024-02-23T12:04:10;98494.00;;;10.18;80.65
19112;BME280;9688;51.906;8.376;2024-02-23T12:06:56;98489.25;;;10.23;80.00
19112;BME280;9688;51.906;8.376;2024-02-23T12:09:41;98494.41;;;10.25;80.08
19112;BME280;9688;51.906;8.376;2024-02-23T12:12:28;98502.44;;;10.23;80.23
19112;BME280;9688;51.906;8.376;2024-02-23T12:15:13;98494.53;;;10.23;79.12
19112;BME280;9688;51.906;8.376;2024-02-23T12:18:05;98495.34;;;10.24;79.21
19112;BME280;9688;51.906;8.376;2024-02-23T12:20:50;98488.72;;;10.31;79.23
19112;BME280;9688;51.906;8.376;2024-02-23T12:23:40;98484.13;;;10.46;79.46
19112;BME280;9688;51.906;8.376;2024-02-23T12:26:25;98490.44;;;10.56;79.33
19112;BME280;9688;51.906;8.376;2024-02-23T12:29:13;98486.84;;;10.57;79.52
19112;BME280;9688;51.906;8.376;2024-02-23T12:32:05;98487.06;;;10.54;79.14
19112;BME280;9688;51.906;8.376;2024-02-23T12:34:54;98483.69;;;10.52;78.55
19112;BME280;9688;51.906;8.376;2024-02-23T12:37:39;98492.97;;;10.58;78.64
19112;BME280;9688;51.906;8.376;2024-02-23T12:40:25;98485.59;;;10.74;78.30
19112;BME280;9688;51.906;8.376;2024-02-23T12:43:11;98487.56;;;10.83;77.84
19112;BME280;9688;51.906;8.376;2024-02-23T12:45:57;98462.81;;;10.84;77.16
19112;BME280;9688;51.906;8.376;2024-02-23T12:48:43;98483.41;;;10.92;77.62
19112;BME280;9688;51.906;8.376;2024-02-23T12:51:29;98468.72;;;10.88;76.87
19112;BME280;9688;51.906;8.376;2024-02-23T12:58:02;98463.34;;;10.89;77.60
19112;BME280;9688;51.906;8.376;2024-02-23T13:00:47;98481.94;;;10.88;77.97
19112;BME280;9688;51.906;8.376;2024-02-23T13:03:33;98479.75;;;10.82;77.67
19112;BME280;9688;51.906;8.376;2024-02-23T13:06:19;98477.34;;;10.79;78.69
19112;BME280;9688;51.906;8.376;2024-02-23T13:09:06;98477.56;;;10.76;78.49
19112;BME280;9688;51.906;8.376;2024-02-23T13:11:52;98480.69;;;10.81;78.53
19112;BME280;9688;51.906;8.376;2024-02-23T13:14:38;98480.31;;;10.74;77.83
19112;BME280;9688;51.906;8.376;2024-02-23T13:17:24;98478.72;;;10.71;78.27
19112;BME280;9688;51.906;8.376;2024-02-23T13:20:11;98474.75;;;10.66;76.93
19112;BME280;9688;51.906;8.376;2024-02-23T13:22:57;98487.97;;;10.66;77.61
19112;BME280;9688;51.906;8.376;2024-02-23T13:25:44;98480.16;;;10.64;77.47
19112;BME280;9688;51.906;8.376;2024-02-23T13:28:30;98488.94;;;10.65;77.60
19112;BME280;9688;51.906;8.376;2024-02-23T13:31:15;98486.16;;;10.66;77.94
19112;BME280;9688;51.906;8.376;2024-02-23T13:34:01;98481.22;;;10.62;78.31
19112;BME280;9688;51.906;8.376;2024-02-23T13:36:46;98480.59;;;10.58;77.47
19112;BME280;9688;51.906;8.376;2024-02-23T13:39:34;98479.88;;;10.56;77.96
19112;BME280;9688;51.906;8.376;2024-02-23T13:42:20;98484.50;;;10.53;78.18
19112;BME280;9688;51.906;8.376;2024-02-23T13:45:07;98477.66;;;10.50;77.83
19112;BME280;9688;51.906;8.376;2024-02-23T13:47:57;98498.19;;;10.46;77.38
19112;BME280;9688;51.906;8.376;2024-02-23T13:50:43;98499.00;;;10.47;79.04
19112;BME280;9688;51.906;8.376;2024-02-23T13:53:29;98490.25;;;10.46;78.92
19112;BME280;9688;51.906;8.376;2024-02-23T13:56:15;98498.19;;;10.46;78.94
19112;BME280;9688;51.906;8.376;2024-02-23T13:59:02;98505.06;;;10.36;78.91
19112;BME280;9688;51.906;8.376;2024-02-23T14:01:48;98497.50;;;10.32;79.54
19112;BME280;9688;51.906;8.376;2024-02-23T14:04:33;98496.53;;;10.33;80.94
19112;BME280;9688;51.906;8.376;2024-02-23T14:07:20;98509.63;;;10.34;80.32
19112;BME280;9688;51.906;8.376;2024-02-23T14:10:06;98506.25;;;10.32;80.13
19112;BME280;9688;51.906;8.376;2024-02-23T14:12:52;98502.78;;;10.32;80.18
19112;BME280;9688;51.906;8.376;2024-02-23T14:15:41;98498.84;;;10.37;80.41
19112;BME280;9688;51.906;8.376;2024-02-23T14:18:26;98506.41;;;10.42;80.48
19112;BME280;9688;51.906;8.376;2024-02-23T14:21:11;98508.97;;;10.43;80.76
19112;BME280;9688;51.906;8.376;2024-02-23T14:23:58;98517.63;;;10.45;80.13
19112;BME280;9688;51.906;8.376;2024-02-23T14:26:43;98519.31;;;10.46;80.11
19112;BME280;9688;51.906;8.376;2024-02-23T14:29:28;98532.50;;;10.46;79.35
19112;BME280;9688;51.906;8.376;2024-02-23T14:32:16;98527.47;;;10.43;79.59
19112;BME280;9688;51.906;8.376;2024-02-23T14:35:02;98530.19;;;10.42;79.32
19112;BME280;9688;51.906;8.376;2024-02-23T14:37:48;98528.66;;;10.39;80.37
19112;BME280;9688;51.906;8.376;2024-02-23T14:40:33;98529.81;;;10.35;79.80
19112;BME280;9688;51.906;8.376;2024-02-23T14:43:18;98534.00;;;10.25;81.05
19112;BME280;9688;51.906;8.376;2024-02-23T14:46:04;98531.72;;;10.20;81.04
19112;BME280;9688;51.906;8.376;2024-02-23T14:48:51;98539.19;;;10.14;81.54
19112;BME280;9688;51.906;8.376;2024-02-23T14:51:37;98531.84;;;10.06;82.65
19112;BME280;9688;51.906;8.376;2024-02-23T14:54:26;98527.72;;;10.02;82.51
19112;BME280;9688;51.906;8.376;2024-02-23T14:57:13;98543.84;;;9.97;82.38
19112;BME280;9688;51.906;8.376;2024-02-23T14:59:58;98545.78;;;9.95;83.36
19112;BME280;9688;51.906;8.376;2024-02-23T15:02:44;98544.06;;;9.94;83.29
19112;BME280;9688;51.906;8.376;2024-02-23T15:05:31;98541.44;;;9.94;83.89
19112;BME280;9688;51.906;8.376;2024-02-23T15:08:16;98539.00;;;9.91;85.11
19112;BME280;9688;51.906;8.376;2024-02-23T15:11:01;98541.13;;;9.86;84.88
19112;BME280;9688;51.906;8.376;2024-02-23T15:13:48;98554.75;;;9.80;86.05
19112;BME280;9688;51.906;8.376;2024-02-23T15:16:35;98551.47;;;9.76;86.09